Time;durP1;ratioP1;P1;durP2;ratioP2;P2;SDS_P1;SDS_P2;PMS_P1;PMS_P2;Temp;Humidity;BMP_temperature;BMP_pressure;BME280_temperature;BME280_humidity;BME280_pressure;Samples;Min_cycle;Max_cycle;Signal;HPM_P1;HPM_P2
2021/09/10 00:02:16;;;;;;;12.03;10.93;;;18.00;99.90;;;;;;4894965;29;20462;-87
2021/09/10 00:04:42;;;;;;;11.60;10.60;;;18.00;99.90;;;;;;4901902;29;20483;-87
2021/09/10 00:07:10;;;;;;;11.93;10.93;;;18.00;99.90;;;;;;4909953;29;20313;-87
2021/09/10 00:09:35;;;;;;;11.23;10.33;;;18.00;99.90;;;;;;4888424;29;20467;-86
2021/09/10 00:12:03;;;;;;;11.17;10.17;;;18.10;99.90;;;;;;4900364;29;20945;-86
2021/09/10 00:14:29;;;;;;;11.67;10.77;;;18.20;99.90;;;;;;4898064;29;20199;-87
2021/09/10 00:16:58;;;;;;;12.73;11.43;;;18.20;99.90;;;;;;4900236;29;20453;-86
2021/09/10 00:19:24;;;;;;;12.30;11.20;;;18.30;99.90;;;;;;4902631;29;20542;-86
2021/09/10 00:21:51;;;;;;;11.97;10.97;;;18.30;99.90;;;;;;4882634;29;20455;-87
2021/09/10 00:24:17;;;;;;;11.27;10.37;;;18.20;99.90;;;;;;4886859;29;20223;-87
2021/09/10 00:26:42;;;;;;;11.43;10.33;;;18.20;99.90;;;;;;4899609;29;21016;-87
2021/09/10 00:29:08;;;;;;;11.20;10.40;;;18.30;99.90;;;;;;4903774;29;20771;-87
2021/09/10 00:31:34;;;;;;;11.30;10.27;;;18.30;99.90;;;;;;4903003;29;20685;-87
2021/09/10 00:33:59;;;;;;;12.53;11.53;;;18.30;99.90;;;;;;4903391;29;20635;-87
2021/09/10 00:36:25;;;;;;;11.80;10.70;;;18.30;99.90;;;;;;4899026;29;20191;-87
2021/09/10 00:38:51;;;;;;;11.93;11.03;;;18.30;99.90;;;;;;4904176;29;20666;-87
2021/09/10 00:41:16;;;;;;;11.20;10.30;;;18.20;99.90;;;;;;4902680;29;20191;-87
2021/09/10 00:43:42;;;;;;;12.30;11.20;;;18.10;99.90;;;;;;4901770;29;20235;-87
2021/09/10 00:46:09;;;;;;;11.30;10.30;;;18.10;99.90;;;;;;4902512;29;20200;-87
2021/09/10 00:48:34;;;;;;;12.67;11.57;;;18.00;99.90;;;;;;4913894;29;20681;-86
2021/09/10 00:51:00;;;;;;;14.30;12.80;;;18.10;99.90;;;;;;4900656;29;20459;-87
2021/09/10 00:53:26;;;;;;;12.60;11.20;;;18.10;99.90;;;;;;4918536;29;20206;-87
2021/09/10 00:55:52;;;;;;;13.30;12.20;;;18.20;99.90;;;;;;4897996;29;20271;-87
2021/09/10 00:58:19;;;;;;;13.43;12.23;;;18.20;99.90;;;;;;4912088;29;20480;-87
2021/09/10 01:00:45;;;;;;;11.77;10.77;;;18.10;99.90;;;;;;4900558;29;20972;-87
2021/09/10 01:03:14;;;;;;;12.90;11.70;;;18.30;99.90;;;;;;4903586;29;20207;-87
2021/09/10 01:05:44;;;;;;;12.03;11.03;;;18.40;99.90;;;;;;4902109;29;20366;-87
2021/09/10 01:08:12;;;;;;;11.77;10.77;;;18.40;99.90;;;;;;4903907;29;20789;-87
2021/09/10 01:10:42;;;;;;;12.70;11.60;;;18.30;99.90;;;;;;4898826;29;20467;-86
2021/09/10 01:13:10;;;;;;;12.03;10.83;;;18.20;99.90;;;;;;4904342;29;20455;-87
2021/09/10 01:15:35;;;;;;;12.47;11.10;;;18.20;99.90;;;;;;4899975;29;20921;-87
2021/09/10 01:18:01;;;;;;;13.77;12.57;;;18.20;99.90;;;;;;4897843;29;20546;-87
2021/09/10 01:20:41;;;;;;;13.37;12.27;;;18.10;99.90;;;;;;4902741;29;20188;-86
2021/09/10 01:23:07;;;;;;;13.10;11.90;;;18.20;99.90;;;;;;4899957;29;20291;-86
2021/09/10 01:25:33;;;;;;;12.00;11.00;;;18.20;99.90;;;;;;4900361;29;20498;-86
2021/09/10 01:28:01;;;;;;;13.70;12.30;;;18.20;99.90;;;;;;4901187;29;20667;-86
2021/09/10 01:30:30;;;;;;;13.67;12.50;;;18.20;99.90;;;;;;4899344;29;20199;-87
2021/09/10 01:32:58;;;;;;;12.50;11.40;;;18.10;99.90;;;;;;4915257;29;21100;-87
2021/09/10 01:35:24;;;;;;;12.70;11.70;;;18.00;99.90;;;;;;4902175;29;20452;-86
2021/09/10 01:37:49;;;;;;;12.03;11.00;;;18.10;99.90;;;;;;4900294;29;20459;-87
2021/09/10 01:40:15;;;;;;;11.90;10.90;;;17.90;99.90;;;;;;4899653;29;20650;-87
2021/09/10 01:42:41;;;;;;;11.70;10.67;;;17.80;99.90;;;;;;4899317;29;20752;-87
2021/09/10 01:45:10;;;;;;;11.87;10.87;;;17.70;99.90;;;;;;4899136;29;20752;-87
2021/09/10 01:47:36;;;;;;;12.27;11.17;;;17.60;99.90;;;;;;4901582;29;20475;-87
2021/09/10 01:50:10;;;;;;;12.80;11.63;;;17.50;99.90;;;;;;4897603;29;20451;-86
2021/09/10 01:52:36;;;;;;;12.23;11.23;;;17.40;99.90;;;;;;4898279;29;20973;-87
2021/09/10 01:55:02;;;;;;;12.40;11.20;;;17.30;99.90;;;;;;4900238;29;20555;-87
2021/09/10 01:57:27;;;;;;;13.03;11.83;;;17.20;99.90;;;;;;4899810;29;20649;-87
2021/09/10 01:59:53;;;;;;;11.53;10.63;;;17.20;99.90;;;;;;4898108;29;20517;-86
2021/09/10 02:02:19;;;;;;;12.10;11.00;;;17.30;99.90;;;;;;4914131;29;20662;-87
2021/09/10 02:04:45;;;;;;;12.60;11.33;;;17.20;99.90;;;;;;4899497;29;20219;-87
2021/09/10 02:07:13;;;;;;;11.93;10.87;;;17.10;99.90;;;;;;4916056;29;20184;-86
2021/09/10 02:09:39;;;;;;;12.10;11.00;;;17.00;99.90;;;;;;4900443;29;20211;-87
2021/09/10 02:12:05;;;;;;;11.90;10.90;;;16.90;99.90;;;;;;4900060;29;20455;-86
2021/09/10 02:14:33;;;;;;;12.00;11.00;;;16.90;99.90;;;;;;4889927;29;20203;-87
2021/09/10 02:16:59;;;;;;;12.60;11.60;;;17.00;99.90;;;;;;4914537;29;20447;-87
2021/09/10 02:19:24;;;;;;;10.73;9.83;;;17.00;99.90;;;;;;4900288;29;20509;-86
2021/09/10 02:21:50;;;;;;;11.60;10.60;;;17.00;99.90;;;;;;4897784;29;20635;-87
2021/09/10 02:24:16;;;;;;;11.43;10.43;;;17.10;99.90;;;;;;4895030;29;20334;-87
2021/09/10 02:26:42;;;;;;;13.17;12.03;;;17.10;99.90;;;;;;4900002;29;20250;-86
2021/09/10 02:29:08;;;;;;;11.97;10.73;;;17.20;99.90;;;;;;4897219;29;21021;-87
2021/09/10 02:31:34;;;;;;;13.07;11.90;;;17.20;99.90;;;;;;4899157;29;20191;-86
2021/09/10 02:33:59;;;;;;;12.90;11.70;;;17.20;99.90;;;;;;4900791;29;20215;-87
2021/09/10 02:36:25;;;;;;;12.50;11.30;;;17.10;99.90;;;;;;4899604;29;20188;-87
2021/09/10 02:38:51;;;;;;;12.07;11.07;;;17.00;99.90;;;;;;4898203;29;20576;-87
2021/09/10 02:41:20;;;;;;;12.37;11.13;;;17.00;99.90;;;;;;4894003;29;20681;-87
2021/09/10 02:43:45;;;;;;;12.90;11.50;;;16.90;99.90;;;;;;4896247;29;20274;-87
2021/09/10 02:46:11;;;;;;;13.10;11.90;;;17.00;99.90;;;;;;4902395;29;20578;-87
2021/09/10 02:48:39;;;;;;;11.83;10.63;;;17.00;99.90;;;;;;4900988;29;20290;-87
2021/09/10 02:51:05;;;;;;;13.30;12.00;;;16.90;99.90;;;;;;4898835;29;20196;-87
2021/09/10 02:53:31;;;;;;;13.10;11.90;;;16.90;99.90;;;;;;4897210;29;20443;-87
2021/09/10 02:55:56;;;;;;;13.40;12.30;;;16.90;99.90;;;;;;4916535;29;20200;-86
2021/09/10 02:58:22;;;;;;;13.50;12.20;;;16.80;99.90;;;;;;4899889;29;20200;-87
2021/09/10 03:00:48;;;;;;;13.77;12.53;;;16.80;99.90;;;;;;4902241;29;20195;-86
2021/09/10 03:03:17;;;;;;;13.13;12.03;;;16.80;99.90;;;;;;4898067;29;20447;-86
2021/09/10 03:05:42;;;;;;;13.30;12.20;;;16.80;99.90;;;;;;4898805;29;20880;-87
2021/09/10 03:08:08;;;;;;;13.57;12.37;;;16.80;99.90;;;;;;4896440;29;20534;-87
2021/09/10 03:10:34;;;;;;;13.37;12.10;;;16.70;99.90;;;;;;4910289;29;20685;-86
2021/09/10 03:12:59;;;;;;;15.20;12.83;;;16.70;99.90;;;;;;4913103;29;20235;-87
2021/09/10 03:15:27;;;;;;;14.37;13.10;;;16.80;99.90;;;;;;4904040;29;20662;-87
2021/09/10 03:17:53;;;;;;;14.20;12.90;;;16.90;99.90;;;;;;4900078;29;20509;-87
2021/09/10 03:20:18;;;;;;;14.93;13.40;;;16.80;99.90;;;;;;4900873;29;20943;-87
2021/09/10 03:22:44;;;;;;;14.33;12.93;;;16.70;99.90;;;;;;4918577;29;20199;-86
2021/09/10 03:25:11;;;;;;;14.30;12.80;;;16.80;99.90;;;;;;4899099;29;20702;-87
2021/09/10 03:27:37;;;;;;;13.57;12.37;;;16.80;99.90;;;;;;4897789;29;20222;-86
2021/09/10 03:30:07;;;;;;;14.10;12.70;;;16.80;99.90;;;;;;4900938;29;20491;-86
2021/09/10 03:32:33;;;;;;;14.23;12.93;;;16.80;99.90;;;;;;4899856;29;20451;-87
2021/09/10 03:34:58;;;;;;;13.93;12.73;;;16.80;99.90;;;;;;4904697;29;20563;-87
2021/09/10 03:37:24;;;;;;;13.50;12.40;;;16.90;99.90;;;;;;4901645;29;20188;-87
2021/09/10 03:39:52;;;;;;;14.83;13.33;;;16.90;99.90;;;;;;4913114;29;20570;-86
2021/09/10 03:42:21;;;;;;;14.03;12.77;;;16.80;99.90;;;;;;4899666;29;20283;-87
2021/09/10 03:44:46;;;;;;;14.13;12.73;;;16.70;99.90;;;;;;4901879;29;20482;-87
2021/09/10 03:47:12;;;;;;;14.60;13.10;;;16.60;99.90;;;;;;4904595;29;20198;-86
2021/09/10 03:49:41;;;;;;;14.37;13.10;;;16.60;99.90;;;;;;4900979;29;20271;-86
2021/09/10 03:52:06;;;;;;;14.83;13.40;;;16.60;99.90;;;;;;4916270;29;20226;-86
2021/09/10 03:54:32;;;;;;;14.60;13.23;;;16.60;99.90;;;;;;4900817;29;20460;-86
2021/09/10 03:56:58;;;;;;;14.47;13.03;;;16.50;99.90;;;;;;4899388;29;20223;-86
2021/09/10 03:59:24;;;;;;;15.40;14.10;;;16.40;99.90;;;;;;4899375;29;20191;-87
2021/09/10 04:01:50;;;;;;;15.50;14.20;;;16.40;99.90;;;;;;4901257;29;20450;-87
2021/09/10 04:04:15;;;;;;;14.27;13.07;;;16.40;99.90;;;;;;4902168;29;20610;-87
2021/09/10 04:06:41;;;;;;;15.37;13.97;;;16.40;99.90;;;;;;4901747;29;20451;-87
2021/09/10 04:09:07;;;;;;;13.50;12.30;;;16.40;99.90;;;;;;4905196;29;20196;-86
2021/09/10 04:11:33;;;;;;;15.40;13.20;;;16.20;99.90;;;;;;4914397;29;20553;-86
2021/09/10 04:13:59;;;;;;;14.43;13.03;;;16.00;99.90;;;;;;4917639;29;20234;-86
2021/09/10 04:16:24;;;;;;;13.90;12.63;;;15.90;99.90;;;;;;4900879;29;20198;-86
2021/09/10 04:18:50;;;;;;;13.63;12.33;;;15.90;99.90;;;;;;4903375;29;20195;-85
2021/09/10 04:21:19;;;;;;;13.30;12.10;;;15.90;99.90;;;;;;4919661;28;20192;-96
2021/09/10 04:23:47;;;;;;;13.17;11.97;;;16.00;99.90;;;;;;4927612;29;20238;-96
2021/09/10 04:26:14;;;;;;;13.33;12.13;;;16.00;99.90;;;;;;4916638;29;20463;-96
2021/09/10 04:29:24;;;;;;;14.20;12.80;;;16.00;99.90;;;;;;4911162;29;20286;-95
2021/09/10 04:31:58;;;;;;;14.27;12.97;;;15.90;99.90;;;;;;4880755;29;20454;-96
2021/09/10 04:34:24;;;;;;;13.80;12.50;;;15.70;99.90;;;;;;4919327;29;20526;-96
2021/09/10 04:36:50;;;;;;;14.70;13.50;;;15.70;99.90;;;;;;4923521;29;20455;-96
2021/09/10 04:39:16;;;;;;;14.03;12.80;;;15.60;99.90;;;;;;4927407;29;20479;-96
2021/09/10 04:41:43;;;;;;;15.90;14.40;;;15.60;99.90;;;;;;4914302;29;20294;-96
2021/09/10 04:44:09;;;;;;;16.07;14.60;;;15.50;99.90;;;;;;4913999;29;20563;-96
2021/09/10 04:46:35;;;;;;;15.57;13.87;;;15.40;99.90;;;;;;4915524;29;20210;-96
2021/09/10 04:49:02;;;;;;;16.70;15.00;;;15.50;99.90;;;;;;4904739;29;20594;-96
2021/09/10 04:51:29;;;;;;;16.13;14.17;;;15.60;99.90;;;;;;4912573;29;20583;-96
2021/09/10 04:56:51;;;;;;;14.97;13.67;;;15.90;99.90;;;;;;4929293;29;20450;-96
2021/09/10 04:59:17;;;;;;;14.73;13.33;;;16.00;99.90;;;;;;4900505;29;20522;-96
2021/09/10 05:01:47;;;;;;;15.73;14.37;;;16.00;99.90;;;;;;4913048;29;20298;-96
2021/09/10 05:04:12;;;;;;;15.40;14.00;;;16.00;99.90;;;;;;4915338;29;20487;-96
2021/09/10 05:06:38;;;;;;;15.60;14.03;;;16.00;99.90;;;;;;4898633;29;20455;-96
2021/09/10 05:09:04;;;;;;;14.97;13.57;;;16.00;99.90;;;;;;4911681;29;20207;-96
2021/09/10 05:11:30;;;;;;;14.50;13.10;;;16.00;99.90;;;;;;4914785;29;20255;-96
2021/09/10 05:13:56;;;;;;;15.20;13.60;;;16.00;99.90;;;;;;4911739;29;20222;-96
2021/09/10 05:16:21;;;;;;;14.27;13.00;;;16.00;99.90;;;;;;4916072;29;20199;-96
2021/09/10 05:18:47;;;;;;;15.20;13.70;;;16.00;99.90;;;;;;4910847;29;20275;-96
2021/09/10 05:21:13;;;;;;;15.40;14.00;;;15.90;99.90;;;;;;4912977;29;20192;-96
2021/09/10 05:23:42;;;;;;;14.77;13.40;;;15.90;99.90;;;;;;4930753;28;20259;-96
2021/09/10 05:26:18;;;;;;;15.27;13.77;;;15.90;99.90;;;;;;4927115;29;20460;-96
2021/09/10 05:28:53;;;;;;;16.10;14.60;;;15.90;99.90;;;;;;4914432;28;20519;-96
2021/09/10 05:31:20;;;;;;;16.50;14.93;;;15.80;99.90;;;;;;4928620;29;20458;-96
2021/09/10 05:36:56;;;;;;;15.23;13.70;;;15.70;99.90;;;;;;4931169;29;20557;-96
2021/09/10 05:39:33;;;;;;;14.80;13.60;;;15.70;99.90;;;;;;4911284;29;20459;-96
2021/09/10 05:42:01;;;;;;;14.33;12.87;;;15.70;99.90;;;;;;4930326;29;20195;-96
2021/09/10 05:44:29;;;;;;;14.90;13.60;;;15.70;99.90;;;;;;4902005;29;20488;-96
2021/09/10 05:46:56;;;;;;;16.07;14.73;;;15.70;99.90;;;;;;4918563;29;20466;-96
2021/09/10 05:49:22;;;;;;;13.90;12.50;;;15.70;99.90;;;;;;4902037;29;20681;-96
2021/09/10 05:51:49;;;;;;;13.77;12.57;;;15.70;99.90;;;;;;4929315;29;20454;-95
2021/09/10 05:54:17;;;;;;;15.20;13.80;;;15.80;99.90;;;;;;4918030;29;20650;-96
2021/09/10 05:56:43;;;;;;;15.73;14.30;;;15.90;99.90;;;;;;4931057;29;20472;-96
2021/09/10 05:59:22;;;;;;;15.63;14.13;;;16.00;99.90;;;;;;4915530;29;20447;-96
2021/09/10 06:01:56;;;;;;;14.67;13.27;;;16.10;99.90;;;;;;4912717;29;20204;-96
2021/09/10 06:04:26;;;;;;;13.93;12.63;;;16.30;99.90;;;;;;4921056;29;20491;-96
2021/09/10 06:07:01;;;;;;;14.40;13.00;;;16.50;99.90;;;;;;4931501;28;20820;-96
2021/09/10 06:09:27;;;;;;;14.67;13.37;;;16.70;99.90;;;;;;4933139;29;20482;-96
2021/09/10 06:11:53;;;;;;;14.57;13.17;;;17.00;99.90;;;;;;4918113;29;20447;-96
2021/09/10 06:14:19;;;;;;;13.63;12.23;;;17.10;99.90;;;;;;4915303;29;20451;-96
2021/09/10 06:16:45;;;;;;;14.33;12.90;;;17.10;99.90;;;;;;4915443;29;20183;-96
2021/09/10 06:19:10;;;;;;;14.00;12.80;;;17.10;99.90;;;;;;4914377;29;20239;-96
2021/09/10 06:21:36;;;;;;;14.43;12.97;;;17.10;99.90;;;;;;4921586;29;20255;-96
2021/09/10 06:24:02;;;;;;;15.23;13.63;;;17.10;99.90;;;;;;4920667;29;20199;-96
2021/09/10 06:26:29;;;;;;;14.40;13.07;;;17.00;99.90;;;;;;4920913;29;20199;-96
2021/09/10 06:28:57;;;;;;;15.40;13.43;;;17.10;99.90;;;;;;4910939;29;20204;-96
2021/09/10 06:31:26;;;;;;;14.87;13.47;;;17.10;99.90;;;;;;4931306;29;21070;-96
2021/09/10 06:33:51;;;;;;;13.40;12.30;;;17.20;99.90;;;;;;4914251;29;20951;-96
2021/09/10 06:36:18;;;;;;;14.20;12.63;;;17.30;99.90;;;;;;4920314;29;20522;-96
2021/09/10 06:38:44;;;;;;;14.93;13.43;;;17.30;99.90;;;;;;4916078;29;20662;-96
2021/09/10 06:41:10;;;;;;;15.63;14.13;;;17.50;99.90;;;;;;4927494;29;20513;-96
2021/09/10 06:43:37;;;;;;;14.70;13.40;;;17.50;99.90;;;;;;4924396;29;20203;-96
2021/09/10 06:46:24;;;;;;;13.70;12.50;;;17.60;99.90;;;;;;4931835;29;20474;-96
2021/09/10 14:24:59;;;;;;;5.77;5.37;;;25.60;92.80;;;;;;955463;23;20762;-93
2021/09/10 14:27:25;;;;;;;6.00;5.50;;;25.10;92.70;;;;;;4904217;29;20457;-95
2021/09/10 14:29:51;;;;;;;6.80;6.20;;;25.10;93.40;;;;;;4901028;29;20752;-96
2021/09/10 14:32:17;;;;;;;6.90;5.70;;;25.30;92.40;;;;;;4900129;29;20195;-96
2021/09/10 14:34:42;;;;;;;4.50;4.20;;;25.40;92.90;;;;;;4891027;29;20468;-96
2021/09/10 14:37:20;;;;;;;5.20;4.10;;;25.60;90.80;;;;;;4886723;29;20197;-93
2021/09/10 14:40:13;;;;;;;6.63;4.17;;;26.10;90.40;;;;;;4883151;29;20852;-96
2021/09/10 14:42:52;;;;;;;4.77;4.37;;;26.80;89.70;;;;;;4889233;29;20456;-96
2021/09/10 14:45:30;;;;;;;4.20;3.90;;;26.00;90.30;;;;;;4902101;29;20607;-94
2021/09/10 14:48:52;;;;;;;4.63;4.23;;;25.80;90.50;;;;;;4899659;29;20528;-96
2021/09/10 14:51:58;;;;;;;4.33;3.93;;;25.80;90.70;;;;;;4887285;29;20988;-95
2021/09/10 14:54:33;;;;;;;4.27;3.87;;;25.30;91.40;;;;;;4889665;29;20990;-95
2021/09/10 14:56:59;;;;;;;4.87;4.20;;;25.90;90.80;;;;;;4885753;29;20468;-96
2021/09/10 14:59:43;;;;;;;4.77;4.47;;;25.90;90.80;;;;;;4888728;29;20540;-96
2021/09/10 15:02:09;;;;;;;4.40;4.10;;;26.50;90.00;;;;;;4893502;29;20566;-94
2021/09/10 15:04:50;;;;;;;4.37;3.97;;;26.00;89.60;;;;;;4888349;29;21079;-96
2021/09/10 15:07:24;;;;;;;5.47;4.27;;;25.80;90.30;;;;;;4895955;29;20441;-96
2021/09/10 15:09:52;;;;;;;5.27;4.87;;;25.10;91.10;;;;;;4891550;29;20463;-96
2021/09/10 15:12:23;;;;;;;4.27;3.97;;;24.00;92.20;;;;;;4891246;29;20579;-96
2021/09/10 15:15:04;;;;;;;;;;;;;;;;;;;;;
2021/09/10 15:17:39;;;;;;;4.17;3.87;;;23.80;92.50;;;;;;4920956;29;20540;-96
2021/09/10 15:20:06;;;;;;;5.03;4.63;;;23.90;92.70;;;;;;4902313;29;20484;-96
2021/09/10 15:22:32;;;;;;;4.60;4.20;;;24.40;92.70;;;;;;4900889;29;20471;-96
2021/09/10 15:24:59;;;;;;;4.77;4.47;;;24.60;92.30;;;;;;4897529;29;20523;-96
2021/09/10 15:27:26;;;;;;;4.27;4.00;;;25.00;91.70;;;;;;4896438;29;20288;-96
2021/09/10 15:29:52;;;;;;;5.43;4.97;;;25.40;91.50;;;;;;4904116;29;20496;-95
2021/09/10 15:32:18;;;;;;;5.10;4.70;;;25.50;91.00;;;;;;4896153;29;20444;-96
2021/09/10 15:34:44;;;;;;;5.90;4.97;;;25.70;91.00;;;;;;4891571;29;20512;-96
2021/09/10 15:37:11;;;;;;;5.07;4.60;;;24.80;92.20;;;;;;4904980;29;20245;-96
2021/09/10 15:39:41;;;;;;;5.20;4.80;;;26.00;91.50;;;;;;4890664;29;20196;-95
2021/09/10 15:42:19;;;;;;;5.67;5.27;;;26.60;90.10;;;;;;4890191;29;20464;-96
2021/09/10 15:44:46;;;;;;;6.37;5.83;;;26.40;90.20;;;;;;4896392;29;20480;-96
2021/09/10 15:47:12;;;;;;;5.80;5.40;;;26.20;89.60;;;;;;4900828;29;20499;-95
2021/09/10 15:49:38;;;;;;;5.60;5.20;;;25.10;90.60;;;;;;4888563;29;20740;-95
2021/09/10 15:52:05;;;;;;;6.57;6.07;;;24.00;92.60;;;;;;4897791;29;20452;-95
2021/09/10 15:54:31;;;;;;;6.60;6.10;;;23.70;93.20;;;;;;4896481;29;20943;-96
2021/09/10 15:56:59;;;;;;;6.60;6.10;;;23.60;94.10;;;;;;4898616;29;20617;-96
2021/09/10 15:59:27;;;;;;;6.57;6.07;;;23.20;94.30;;;;;;4891575;29;20492;-95
2021/09/10 16:02:02;;;;;;;6.80;6.30;;;23.00;94.80;;;;;;4894421;29;20978;-96
2021/09/10 16:04:28;;;;;;;7.17;6.57;;;23.00;94.90;;;;;;4901453;29;20523;-96
2021/09/10 16:06:54;;;;;;;6.97;6.40;;;22.90;95.50;;;;;;4899796;29;20555;-96
2021/09/10 16:09:40;;;;;;;7.10;6.60;;;23.00;95.80;;;;;;4900368;29;20189;-96
2021/09/10 16:12:06;;;;;;;7.30;6.80;;;22.80;96.10;;;;;;4905828;29;20456;-96
2021/09/10 16:14:38;;;;;;;7.33;6.73;;;22.80;96.10;;;;;;4898281;29;20479;-96
2021/09/10 16:17:03;;;;;;;7.20;6.60;;;22.70;95.90;;;;;;4896626;29;20201;-96
2021/09/10 16:19:39;;;;;;;7.40;6.90;;;22.60;96.20;;;;;;4890800;29;20838;-96
2021/09/10 16:22:05;;;;;;;7.80;7.20;;;22.50;96.20;;;;;;4896457;29;20653;-96
2021/09/10 16:24:33;;;;;;;7.50;6.70;;;22.50;96.50;;;;;;4911085;29;20451;-96
2021/09/10 16:27:06;;;;;;;8.17;7.37;;;22.60;96.70;;;;;;4908602;29;20370;-94
2021/09/10 16:29:32;;;;;;;8.47;7.00;;;22.50;96.50;;;;;;4904711;29;20870;-95
2021/09/10 16:32:18;;;;;;;7.10;6.50;;;22.40;96.70;;;;;;4909401;29;20200;-96
2021/09/10 16:34:44;;;;;;;7.57;6.97;;;22.40;96.60;;;;;;4915393;29;20272;-96
2021/09/10 16:37:11;;;;;;;7.80;7.10;;;22.40;96.80;;;;;;4932642;29;20511;-96
2021/09/10 17:13:23;;;;;;;7.70;7.10;;;21.80;98.30;;;;;;4913734;29;20505;-95
2021/09/10 17:15:49;;;;;;;8.90;8.10;;;21.70;98.40;;;;;;4910618;29;20551;-94
2021/09/10 17:18:16;;;;;;;8.40;7.73;;;21.70;98.50;;;;;;4890033;29;20799;-96
2021/09/10 17:23:25;;;;;;;9.33;8.53;;;21.70;98.80;;;;;;4906147;29;20515;-96
2021/09/10 17:25:51;;;;;;;9.63;8.77;;;21.60;98.70;;;;;;4904742;29;20543;-96
2021/09/10 17:28:17;;;;;;;9.10;8.17;;;21.60;98.90;;;;;;4904327;29;20225;-96
2021/09/10 17:30:43;;;;;;;8.93;8.23;;;21.60;99.10;;;;;;4903957;29;20219;-96
2021/09/10 17:33:08;;;;;;;8.57;7.87;;;21.60;99.20;;;;;;4898598;29;20454;-96
2021/09/10 17:35:35;;;;;;;9.73;7.73;;;21.50;99.30;;;;;;4898537;29;20635;-96
2021/09/10 17:38:01;;;;;;;8.80;8.00;;;21.50;99.60;;;;;;4905472;29;20673;-96
2021/09/10 17:40:29;;;;;;;9.50;8.60;;;21.40;99.80;;;;;;4904725;29;21298;-96
2021/09/10 17:42:58;;;;;;;9.03;8.30;;;21.30;99.90;;;;;;4922584;29;20200;-95
2021/09/10 17:45:32;;;;;;;8.70;8.00;;;21.30;99.90;;;;;;4906786;29;20483;-95
2021/09/10 17:48:00;;;;;;;9.17;8.37;;;21.30;99.90;;;;;;4922709;29;20208;-95
2021/09/10 17:50:29;;;;;;;9.60;8.70;;;21.20;99.90;;;;;;4908823;29;20494;-96
2021/09/10 17:52:58;;;;;;;10.30;9.47;;;21.10;99.90;;;;;;4908212;29;20465;-96
2021/09/10 17:58:16;;;;;;;9.57;8.87;;;20.90;99.90;;;;;;4906831;23;20981;-92
2021/09/10 18:00:43;;;;;;;12.40;9.27;;;20.90;99.90;;;;;;4863103;29;20465;-92
2021/09/10 18:03:09;;;;;;;10.30;9.50;;;20.90;99.90;;;;;;4887162;29;20201;-92
2021/09/10 18:05:37;;;;;;;11.13;8.67;;;20.90;99.90;;;;;;4861299;29;20565;-92
2021/09/10 18:08:04;;;;;;;9.57;8.60;;;21.00;99.90;;;;;;4861606;29;20581;-93
2021/09/10 18:10:30;;;;;;;9.90;9.10;;;21.10;99.90;;;;;;4872724;29;20474;-92
2021/09/10 18:13:15;;;;;;;9.27;8.43;;;20.90;99.90;;;;;;4861570;29;20451;-96
2021/09/10 18:15:42;;;;;;;9.53;8.73;;;20.90;99.90;;;;;;4869717;29;20225;-92
2021/09/10 18:18:18;;;;;;;10.83;9.77;;;20.80;99.90;;;;;;4862894;29;21007;-93
2021/09/10 18:20:52;;;;;;;10.27;9.40;;;20.80;99.90;;;;;;4866189;29;20459;-93
2021/09/10 18:23:17;;;;;;;11.13;10.03;;;20.70;99.90;;;;;;4899017;29;20592;-95
2021/09/10 18:25:59;;;;;;;9.37;8.60;;;20.60;99.90;;;;;;4890249;29;20495;-94
2021/09/10 18:28:33;;;;;;;10.37;9.47;;;20.50;99.90;;;;;;4883491;29;20225;-94
2021/09/10 18:31:03;;;;;;;9.60;8.80;;;20.40;99.90;;;;;;4865600;29;20465;-93
2021/09/10 18:33:32;;;;;;;10.57;9.67;;;20.30;99.90;;;;;;4881028;29;20796;-93
2021/09/10 18:36:00;;;;;;;10.40;9.50;;;20.20;99.90;;;;;;4859232;29;20522;-95
2021/09/10 18:38:25;;;;;;;10.40;9.47;;;20.00;99.90;;;;;;4862269;29;20473;-94
2021/09/10 18:40:51;;;;;;;10.47;9.67;;;19.80;99.90;;;;;;4864283;29;21240;-94
2021/09/10 18:43:44;;;;;;;10.30;9.30;;;19.70;99.90;;;;;;4853431;29;20236;-93
2021/09/10 18:49:26;;;;;;;10.87;8.90;;;19.40;99.90;;;;;;4866876;29;20471;-95
2021/09/10 18:54:41;;;;;;;10.67;9.77;;;19.20;99.90;;;;;;4873723;29;20705;-95
2021/09/10 18:57:15;;;;;;;10.57;9.77;;;19.30;99.90;;;;;;4872211;29;20473;-94
2021/09/10 18:59:46;;;;;;;10.63;9.70;;;19.20;99.90;;;;;;4868887;29;20446;-94
2021/09/10 19:02:12;;;;;;;11.57;10.13;;;19.30;99.90;;;;;;4867299;29;20550;-94
2021/09/10 19:04:38;;;;;;;10.60;9.80;;;19.20;99.90;;;;;;4865761;29;20205;-94
2021/09/10 19:07:05;;;;;;;11.50;10.50;;;19.20;99.90;;;;;;4867881;29;20412;-94
2021/09/10 19:09:36;;;;;;;10.80;9.30;;;19.30;99.90;;;;;;4867194;29;20205;-94
2021/09/10 19:12:22;;;;;;;10.00;9.20;;;19.40;99.90;;;;;;4866958;29;20870;-94
2021/09/10 19:14:53;;;;;;;10.20;9.30;;;19.50;99.90;;;;;;4871652;29;20462;-95
2021/09/10 19:17:21;;;;;;;11.17;10.27;;;19.50;99.90;;;;;;4869871;29;20481;-93
2021/09/10 19:19:55;;;;;;;10.57;9.77;;;19.60;99.90;;;;;;4868998;29;20529;-94
2021/09/10 19:22:24;;;;;;;11.13;9.80;;;19.60;99.90;;;;;;4873323;29;20615;-94
2021/09/10 19:25:21;;;;;;;11.20;10.10;;;19.60;99.90;;;;;;4870492;29;20217;-94
2021/09/10 19:27:47;;;;;;;9.97;9.10;;;19.50;99.90;;;;;;4866291;29;23475;-94
2021/09/10 19:30:13;;;;;;;10.60;9.80;;;19.50;99.90;;;;;;4865721;29;20549;-90
2021/09/10 19:32:40;;;;;;;9.60;8.87;;;19.60;99.90;;;;;;4872492;29;20217;-88
2021/09/10 19:35:07;;;;;;;10.70;9.70;;;19.60;99.90;;;;;;4859452;29;20222;-90
2021/09/10 19:37:32;;;;;;;11.00;10.10;;;19.70;99.90;;;;;;4862218;29;20446;-90
2021/09/10 19:39:59;;;;;;;9.87;9.07;;;19.60;99.90;;;;;;4876773;29;20918;-90
2021/09/10 19:42:26;;;;;;;9.67;8.77;;;19.60;99.90;;;;;;4856482;29;20246;-90
2021/09/10 19:44:52;;;;;;;10.27;9.47;;;19.70;99.90;;;;;;4860890;29;20965;-91
2021/09/10 19:47:18;;;;;;;10.23;9.30;;;19.70;99.90;;;;;;4867120;29;20476;-93
2021/09/10 19:49:44;;;;;;;10.53;9.60;;;19.80;99.90;;;;;;4866226;29;20457;-93
2021/09/10 19:52:12;;;;;;;11.50;9.63;;;19.90;99.90;;;;;;4868395;29;20502;-92
2021/09/10 19:54:38;;;;;;;10.67;9.67;;;19.80;99.90;;;;;;4866884;29;20458;-92
2021/09/10 19:57:05;;;;;;;10.77;9.77;;;19.70;99.90;;;;;;4878413;29;20496;-90
2021/09/10 19:59:31;;;;;;;11.10;10.10;;;19.60;99.90;;;;;;4866193;29;20481;-90
2021/09/10 20:01:57;;;;;;;10.57;9.70;;;19.60;99.90;;;;;;4866152;29;20466;-91
2021/09/10 20:04:23;;;;;;;10.70;9.80;;;19.60;99.90;;;;;;4866809;29;20490;-91
2021/09/10 20:06:57;;;;;;;10.93;10.13;;;19.60;99.90;;;;;;4871492;29;20482;-92
2021/09/10 20:09:23;;;;;;;11.33;10.20;;;19.60;99.90;;;;;;4869534;29;20454;-90
2021/09/10 20:11:50;;;;;;;10.60;9.80;;;19.60;99.90;;;;;;4872944;29;20201;-92
2021/09/10 20:14:15;;;;;;;10.80;9.90;;;19.50;99.90;;;;;;4869602;29;20649;-91
2021/09/10 20:16:41;;;;;;;10.73;9.63;;;19.50;99.90;;;;;;4868919;29;20517;-91
2021/09/10 20:19:07;;;;;;;11.13;10.23;;;19.50;99.90;;;;;;4868822;29;20238;-92
2021/09/10 20:21:34;;;;;;;11.73;10.80;;;19.50;99.90;;;;;;4883327;29;20708;-92
2021/09/10 20:24:01;;;;;;;10.60;9.63;;;19.50;99.90;;;;;;4864843;29;20288;-91
2021/09/10 20:26:28;;;;;;;11.03;10.13;;;19.60;99.90;;;;;;4854153;29;20486;-91
2021/09/10 20:28:55;;;;;;;10.10;9.30;;;19.60;99.90;;;;;;4867358;29;20443;-92
2021/09/10 20:31:21;;;;;;;11.63;10.43;;;19.50;99.90;;;;;;4868121;29;20515;-91
2021/09/10 20:33:47;;;;;;;11.87;10.87;;;19.50;99.90;;;;;;4865393;29;20566;-91
2021/09/10 20:36:13;;;;;;;10.70;9.80;;;19.40;99.90;;;;;;4864883;29;20325;-91
2021/09/10 20:38:40;;;;;;;11.37;10.37;;;19.30;99.90;;;;;;4883494;29;20209;-91
2021/09/10 20:41:05;;;;;;;11.90;10.87;;;19.40;99.90;;;;;;4865376;29;20287;-91
2021/09/10 20:43:32;;;;;;;14.03;11.20;;;19.40;99.90;;;;;;4867680;29;20442;-92
2021/09/10 20:45:58;;;;;;;11.57;10.47;;;19.30;99.90;;;;;;4866497;29;20225;-90
2021/09/10 20:48:24;;;;;;;13.00;11.93;;;19.40;99.90;;;;;;4868073;29;20816;-92
2021/09/10 20:50:51;;;;;;;11.53;10.57;;;19.30;99.90;;;;;;4866284;29;20655;-91
2021/09/10 20:53:20;;;;;;;11.10;10.10;;;19.30;99.90;;;;;;4869760;29;20182;-91
2021/09/10 20:55:54;;;;;;;11.47;10.50;;;19.30;99.90;;;;;;4866637;29;20529;-90
2021/09/10 20:58:23;;;;;;;12.10;11.10;;;19.30;99.90;;;;;;4863748;29;20467;-90
2021/09/10 21:00:49;;;;;;;12.37;11.27;;;19.30;99.90;;;;;;4865348;29;20821;-89
2021/09/10 21:03:15;;;;;;;11.90;11.00;;;19.20;99.90;;;;;;4882728;29;20266;-90
2021/09/10 21:05:41;;;;;;;12.20;11.10;;;19.20;99.90;;;;;;4865957;29;20707;-90
2021/09/10 21:08:08;;;;;;;11.63;10.63;;;19.30;99.90;;;;;;4865772;29;20209;-90